sensor_id;sensor_type;location;lat;lon;timestamp;temperature;humidity
2855;DHT22;1435;49.472;10.940;2023-09-07T00:01:06;18.10;99.90
2855;DHT22;1435;49.472;10.940;2023-09-07T00:06:08;18.00;99.90
2855;DHT22;1435;49.472;10.940;2023-09-07T00:17:08;17.90;99.90
2855;DHT22;1435;49.472;10.940;2023-09-07T00:22:10;17.80;99.90
2855;DHT22;1435;49.472;10.940;2023-09-07T00:27:12;17.70;99.90
2855;DHT22;1435;49.472;10.940;2023-09-07T00:32:15;17.70;99.90
2855;DHT22;1435;49.472;10.940;2023-09-07T00:37:16;17.60;99.90
2855;DHT22;1435;49.472;10.940;2023-09-07T00:42:18;17.60;99.90
2855;DHT22;1435;49.472;10.940;2023-09-07T00:47:21;17.50;99.90
2855;DHT22;1435;49.472;10.940;2023-09-07T00:52:23;17.50;99.90
2855;DHT22;1435;49.472;10.940;2023-09-07T00:57:25;17.40;99.90
2855;DHT22;1435;49.472;10.940;2023-09-07T01:08:15;17.20;99.90
2855;DHT22;1435;49.472;10.940;2023-09-07T01:13:18;17.20;99.90
2855;DHT22;1435;49.472;10.940;2023-09-07T01:18:20;17.10;99.90
2855;DHT22;1435;49.472;10.940;2023-09-07T01:23:24;17.10;99.90
2855;DHT22;1435;49.472;10.940;2023-09-07T01:28:26;17.10;99.90
2855;DHT22;1435;49.472;10.940;2023-09-07T01:33:28;17.10;99.90
2855;DHT22;1435;49.472;10.940;2023-09-07T01:38:31;17.00;99.90
2855;DHT22;1435;49.472;10.940;2023-09-07T01:43:33;17.00;99.90
2855;DHT22;1435;49.472;10.940;2023-09-07T01:48:35;16.90;99.90
2855;DHT22;1435;49.472;10.940;2023-09-07T01:53:38;16.90;99.90
2855;DHT22;1435;49.472;10.940;2023-09-07T01:58:40;16.80;99.90
2855;DHT22;1435;49.472;10.940;2023-09-07T02:03:41;16.70;99.90
2855;DHT22;1435;49.472;10.940;2023-09-07T02:08:44;16.70;99.90
2855;DHT22;1435;49.472;10.940;2023-09-07T02:13:47;16.70;99.90
2855;DHT22;1435;49.472;10.940;2023-09-07T02:18:50;16.60;99.90
2855;DHT22;1435;49.472;10.940;2023-09-07T02:23:53;16.60;99.90
2855;DHT22;1435;49.472;10.940;2023-09-07T02:28:55;16.60;99.90
2855;DHT22;1435;49.472;10.940;2023-09-07T02:33:56;16.50;99.90
2855;DHT22;1435;49.472;10.940;2023-09-07T02:38:59;16.50;99.90
2855;DHT22;1435;49.472;10.940;2023-09-07T02:44:01;16.50;99.90
2855;DHT22;1435;49.472;10.940;2023-09-07T02:49:03;16.50;99.90
2855;DHT22;1435;49.472;10.940;2023-09-07T02:54:07;16.40;99.90
2855;DHT22;1435;49.472;10.940;2023-09-07T02:59:09;16.30;99.90
2855;DHT22;1435;49.472;10.940;2023-09-07T03:04:11;16.30;99.90
2855;DHT22;1435;49.472;10.940;2023-09-07T03:09:14;16.30;99.90
2855;DHT22;1435;49.472;10.940;2023-09-07T03:14:15;16.20;99.90
2855;DHT22;1435;49.472;10.940;2023-09-07T03:19:17;16.20;99.90
2855;DHT22;1435;49.472;10.940;2023-09-07T03:24:20;16.10;99.90
2855;DHT22;1435;49.472;10.940;2023-09-07T03:29:22;16.10;99.90
2855;DHT22;1435;49.472;10.940;2023-09-07T03:34:23;16.00;99.90
2855;DHT22;1435;49.472;10.940;2023-09-07T03:39:26;16.00;99.90
2855;DHT22;1435;49.472;10.940;2023-09-07T03:44:29;15.90;99.90
2855;DHT22;1435;49.472;10.940;2023-09-07T03:49:30;15.90;99.90
2855;DHT22;1435;49.472;10.940;2023-09-07T03:54:33;15.90;99.90
2855;DHT22;1435;49.472;10.940;2023-09-07T03:59:35;15.90;99.90
2855;DHT22;1435;49.472;10.940;2023-09-07T04:04:37;15.80;99.90
2855;DHT22;1435;49.472;10.940;2023-09-07T04:09:40;15.80;99.90
2855;DHT22;1435;49.472;10.940;2023-09-07T04:14:41;15.70;99.90
2855;DHT22;1435;49.472;10.940;2023-09-07T04:19:42;15.70;99.90
2855;DHT22;1435;49.472;10.940;2023-09-07T04:24:48;15.70;99.90
2855;DHT22;1435;49.472;10.940;2023-09-07T04:29:50;15.60;99.90
2855;DHT22;1435;49.472;10.940;2023-09-07T04:34:56;15.60;99.90
2855;DHT22;1435;49.472;10.940;2023-09-07T04:40:01;15.60;99.90
2855;DHT22;1435;49.472;10.940;2023-09-07T04:45:03;15.50;99.90
2855;DHT22;1435;49.472;10.940;2023-09-07T04:50:06;15.50;99.90
2855;DHT22;1435;49.472;10.940;2023-09-07T04:55:10;15.50;99.90
2855;DHT22;1435;49.472;10.940;2023-09-07T05:00:12;15.50;99.90
2855;DHT22;1435;49.472;10.940;2023-09-07T05:05:14;15.50;99.90
2855;DHT22;1435;49.472;10.940;2023-09-07T05:10:19;15.50;99.90
2855;DHT22;1435;49.472;10.940;2023-09-07T05:15:20;15.50;99.90
2855;DHT22;1435;49.472;10.940;2023-09-07T05:20:22;15.50;99.90
2855;DHT22;1435;49.472;10.940;2023-09-07T05:25:25;15.50;99.90
2855;DHT22;1435;49.472;10.940;2023-09-07T05:30:27;15.50;99.90
2855;DHT22;1435;49.472;10.940;2023-09-07T05:35:28;15.50;99.90
2855;DHT22;1435;49.472;10.940;2023-09-07T05:40:36;15.60;99.90
2855;DHT22;1435;49.472;10.940;2023-09-07T05:45:39;15.60;99.90
2855;DHT22;1435;49.472;10.940;2023-09-07T05:50:41;15.60;99.90
2855;DHT22;1435;49.472;10.940;2023-09-07T05:55:44;15.60;99.90
2855;DHT22;1435;49.472;10.940;2023-09-07T06:00:46;15.70;99.90
2855;DHT22;1435;49.472;10.940;2023-09-07T06:05:47;15.70;99.90
2855;DHT22;1435;49.472;10.940;2023-09-07T06:10:50;15.80;99.90
2855;DHT22;1435;49.472;10.940;2023-09-07T06:15:52;15.80;99.90
2855;DHT22;1435;49.472;10.940;2023-09-07T06:20:54;15.80;99.90
2855;DHT22;1435;49.472;10.940;2023-09-07T06:25:57;15.90;99.90
2855;DHT22;1435;49.472;10.940;2023-09-07T06:30:59;15.90;99.90
2855;DHT22;1435;49.472;10.940;2023-09-07T06:36:01;16.00;99.90
2855;DHT22;1435;49.472;10.940;2023-09-07T06:41:04;16.00;99.90
2855;DHT22;1435;49.472;10.940;2023-09-07T06:46:08;16.00;99.90
2855;DHT22;1435;49.472;10.940;2023-09-07T06:51:10;16.10;99.90
2855;DHT22;1435;49.472;10.940;2023-09-07T06:56:13;16.10;99.90
2855;DHT22;1435;49.472;10.940;2023-09-07T07:01:15;16.20;99.90
2855;DHT22;1435;49.472;10.940;2023-09-07T07:06:17;16.30;99.90
2855;DHT22;1435;49.472;10.940;2023-09-07T07:11:20;16.30;99.90
2855;DHT22;1435;49.472;10.940;2023-09-07T07:16:22;16.40;99.90
2855;DHT22;1435;49.472;10.940;2023-09-07T07:21:23;16.50;99.90
2855;DHT22;1435;49.472;10.940;2023-09-07T07:26:27;16.60;99.90
2855;DHT22;1435;49.472;10.940;2023-09-07T07:31:29;16.70;99.90
2855;DHT22;1435;49.472;10.940;2023-09-07T07:36:30;16.90;99.90
2855;DHT22;1435;49.472;10.940;2023-09-07T07:41:34;17.00;99.90
2855;DHT22;1435;49.472;10.940;2023-09-07T07:46:36;17.10;99.90
2855;DHT22;1435;49.472;10.940;2023-09-07T07:51:37;17.20;99.90
2855;DHT22;1435;49.472;10.940;2023-09-07T07:56:40;17.40;99.90
2855;DHT22;1435;49.472;10.940;2023-09-07T08:01:42;17.50;99.90
2855;DHT22;1435;49.472;10.940;2023-09-07T08:06:44;17.70;99.90
2855;DHT22;1435;49.472;10.940;2023-09-07T08:11:48;17.90;99.90
2855;DHT22;1435;49.472;10.940;2023-09-07T08:16:52;18.10;99.90
2855;DHT22;1435;49.472;10.940;2023-09-07T08:21:54;18.20;99.90
2855;DHT22;1435;49.472;10.940;2023-09-07T08:26:57;18.40;99.90
2855;DHT22;1435;49.472;10.940;2023-09-07T08:32:00;18.50;99.90
2855;DHT22;1435;49.472;10.940;2023-09-07T08:37:04;18.70;99.90
2855;DHT22;1435;49.472;10.940;2023-09-07T08:42:09;18.90;99.90
2855;DHT22;1435;49.472;10.940;2023-09-07T08:47:11;19.10;99.90
2855;DHT22;1435;49.472;10.940;2023-09-07T08:52:15;19.30;99.90
2855;DHT22;1435;49.472;10.940;2023-09-07T08:57:19;19.40;99.90
2855;DHT22;1435;49.472;10.940;2023-09-07T09:02:22;19.50;99.90
2855;DHT22;1435;49.472;10.940;2023-09-07T09:07:24;19.60;99.90
2855;DHT22;1435;49.472;10.940;2023-09-07T09:12:27;19.80;99.90
2855;DHT22;1435;49.472;10.940;2023-09-07T09:17:29;19.90;99.90
2855;DHT22;1435;49.472;10.940;2023-09-07T09:22:30;20.10;99.90
2855;DHT22;1435;49.472;10.940;2023-09-07T09:27:34;20.20;99.90
2855;DHT22;1435;49.472;10.940;2023-09-07T09:32:35;20.30;99.90
2855;DHT22;1435;49.472;10.940;2023-09-07T09:37:44;20.40;99.90
2855;DHT22;1435;49.472;10.940;2023-09-07T09:42:48;20.60;99.90
2855;DHT22;1435;49.472;10.940;2023-09-07T09:47:50;20.70;99.90
2855;DHT22;1435;49.472;10.940;2023-09-07T09:52:53;20.90;99.90
2855;DHT22;1435;49.472;10.940;2023-09-07T09:57:56;21.00;99.90
2855;DHT22;1435;49.472;10.940;2023-09-07T10:03:02;21.10;99.90
2855;DHT22;1435;49.472;10.940;2023-09-07T10:08:09;21.20;99.90
2855;DHT22;1435;49.472;10.940;2023-09-07T10:13:15;21.40;99.90
2855;DHT22;1435;49.472;10.940;2023-09-07T10:18:17;21.50;99.90
2855;DHT22;1435;49.472;10.940;2023-09-07T10:23:19;21.60;99.90
2855;DHT22;1435;49.472;10.940;2023-09-07T10:28:24;21.80;99.90
2855;DHT22;1435;49.472;10.940;2023-09-07T10:33:26;21.90;99.90
2855;DHT22;1435;49.472;10.940;2023-09-07T10:38:28;21.90;99.90
2855;DHT22;1435;49.472;10.940;2023-09-07T10:43:31;22.10;99.90
2855;DHT22;1435;49.472;10.940;2023-09-07T10:48:33;22.10;99.90
2855;DHT22;1435;49.472;10.940;2023-09-07T10:53:35;22.30;99.90
2855;DHT22;1435;49.472;10.940;2023-09-07T10:58:38;22.50;99.90
2855;DHT22;1435;49.472;10.940;2023-09-07T11:03:42;22.60;99.90
2855;DHT22;1435;49.472;10.940;2023-09-07T11:08:44;22.70;99.90
2855;DHT22;1435;49.472;10.940;2023-09-07T11:13:47;22.70;99.90
2855;DHT22;1435;49.472;10.940;2023-09-07T11:18:50;22.80;99.90
2855;DHT22;1435;49.472;10.940;2023-09-07T11:23:52;22.90;99.90
2855;DHT22;1435;49.472;10.940;2023-09-07T11:28:56;23.00;99.90
2855;DHT22;1435;49.472;10.940;2023-09-07T11:33:58;23.10;99.90
2855;DHT22;1435;49.472;10.940;2023-09-07T11:39:00;23.20;99.90
2855;DHT22;1435;49.472;10.940;2023-09-07T11:44:07;23.30;99.90
2855;DHT22;1435;49.472;10.940;2023-09-07T11:49:09;23.40;99.90
2855;DHT22;1435;49.472;10.940;2023-09-07T11:54:11;23.50;99.90
2855;DHT22;1435;49.472;10.940;2023-09-07T11:59:14;23.60;99.90
2855;DHT22;1435;49.472;10.940;2023-09-07T12:04:16;23.70;99.90
2855;DHT22;1435;49.472;10.940;2023-09-07T12:09:18;23.80;99.90
2855;DHT22;1435;49.472;10.940;2023-09-07T12:14:21;24.10;99.90
2855;DHT22;1435;49.472;10.940;2023-09-07T12:19:23;24.10;99.90
2855;DHT22;1435;49.472;10.940;2023-09-07T12:24:25;24.20;99.90
2855;DHT22;1435;49.472;10.940;2023-09-07T12:29:28;24.30;99.90
2855;DHT22;1435;49.472;10.940;2023-09-07T12:34:30;24.40;99.90
2855;DHT22;1435;49.472;10.940;2023-09-07T12:39:32;24.50;99.90
2855;DHT22;1435;49.472;10.940;2023-09-07T12:44:35;24.60;99.90
2855;DHT22;1435;49.472;10.940;2023-09-07T12:49:36;24.80;99.90
2855;DHT22;1435;49.472;10.940;2023-09-07T12:54:38;24.90;99.90
2855;DHT22;1435;49.472;10.940;2023-09-07T12:59:41;25.00;99.90
2855;DHT22;1435;49.472;10.940;2023-09-07T13:04:43;25.20;99.90
2855;DHT22;1435;49.472;10.940;2023-09-07T13:09:44;25.30;99.90
2855;DHT22;1435;49.472;10.940;2023-09-07T13:14:47;25.50;99.90
2855;DHT22;1435;49.472;10.940;2023-09-07T13:19:49;25.50;99.90
2855;DHT22;1435;49.472;10.940;2023-09-07T13:24:51;25.60;99.90
2855;DHT22;1435;49.472;10.940;2023-09-07T13:29:54;25.70;99.90
2855;DHT22;1435;49.472;10.940;2023-09-07T13:34:56;25.80;99.90
2855;DHT22;1435;49.472;10.940;2023-09-07T13:39:58;25.90;99.90
2855;DHT22;1435;49.472;10.940;2023-09-07T13:45:01;26.00;99.90
2855;DHT22;1435;49.472;10.940;2023-09-07T13:50:04;26.10;99.90
2855;DHT22;1435;49.472;10.940;2023-09-07T13:55:06;26.10;99.60
2855;DHT22;1435;49.472;10.940;2023-09-07T14:00:10;26.30;99.90
2855;DHT22;1435;49.472;10.940;2023-09-07T14:05:12;26.40;99.90
2855;DHT22;1435;49.472;10.940;2023-09-07T14:10:13;26.40;99.90
2855;DHT22;1435;49.472;10.940;2023-09-07T14:15:17;26.60;99.90
2855;DHT22;1435;49.472;10.940;2023-09-07T14:20:18;26.70;99.90
2855;DHT22;1435;49.472;10.940;2023-09-07T14:25:20;26.80;99.90
2855;DHT22;1435;49.472;10.940;2023-09-07T14:30:23;26.80;99.80
2855;DHT22;1435;49.472;10.940;2023-09-07T14:35:25;26.90;98.80
2855;DHT22;1435;49.472;10.940;2023-09-07T14:40:26;27.00;97.10
2855;DHT22;1435;49.472;10.940;2023-09-07T14:45:29;27.10;99.10
2855;DHT22;1435;49.472;10.940;2023-09-07T14:50:31;27.20;98.50
2855;DHT22;1435;49.472;10.940;2023-09-07T14:55:33;27.30;97.20
2855;DHT22;1435;49.472;10.940;2023-09-07T15:00:36;27.50;97.40
2855;DHT22;1435;49.472;10.940;2023-09-07T15:05:38;27.60;96.10
2855;DHT22;1435;49.472;10.940;2023-09-07T15:10:39;27.70;95.40
2855;DHT22;1435;49.472;10.940;2023-09-07T15:15:42;27.80;95.10
2855;DHT22;1435;49.472;10.940;2023-09-07T15:20:44;27.90;94.80
2855;DHT22;1435;49.472;10.940;2023-09-07T15:25:46;28.00;95.20
2855;DHT22;1435;49.472;10.940;2023-09-07T15:30:49;28.00;92.30
2855;DHT22;1435;49.472;10.940;2023-09-07T15:35:50;28.10;92.30
2855;DHT22;1435;49.472;10.940;2023-09-07T15:40:52;28.10;90.70
2855;DHT22;1435;49.472;10.940;2023-09-07T15:45:55;28.20;92.40
2855;DHT22;1435;49.472;10.940;2023-09-07T15:50:57;28.20;93.60
2855;DHT22;1435;49.472;10.940;2023-09-07T15:55:58;28.20;91.20
2855;DHT22;1435;49.472;10.940;2023-09-07T16:01:01;28.10;90.20
2855;DHT22;1435;49.472;10.940;2023-09-07T16:06:03;28.20;91.70
2855;DHT22;1435;49.472;10.940;2023-09-07T16:11:05;28.10;90.90
2855;DHT22;1435;49.472;10.940;2023-09-07T16:16:08;28.10;92.10
2855;DHT22;1435;49.472;10.940;2023-09-07T16:21:10;28.10;92.70
2855;DHT22;1435;49.472;10.940;2023-09-07T16:26:15;28.10;91.70
2855;DHT22;1435;49.472;10.940;2023-09-07T16:31:18;28.10;92.40
2855;DHT22;1435;49.472;10.940;2023-09-07T16:36:20;28.10;92.60
2855;DHT22;1435;49.472;10.940;2023-09-07T16:41:21;28.10;93.40
2855;DHT22;1435;49.472;10.940;2023-09-07T16:46:25;28.00;93.10
2855;DHT22;1435;49.472;10.940;2023-09-07T16:51:26;28.00;93.40
2855;DHT22;1435;49.472;10.940;2023-09-07T16:56:28;27.90;93.00
2855;DHT22;1435;49.472;10.940;2023-09-07T17:01:31;27.90;93.00
2855;DHT22;1435;49.472;10.940;2023-09-07T17:06:33;27.80;93.50
2855;DHT22;1435;49.472;10.940;2023-09-07T17:11:34;27.70;93.80
2855;DHT22;1435;49.472;10.940;2023-09-07T17:16:37;27.70;93.90
2855;DHT22;1435;49.472;10.940;2023-09-07T17:21:39;27.60;94.00
2855;DHT22;1435;49.472;10.940;2023-09-07T17:26:41;27.50;94.90
2855;DHT22;1435;49.472;10.940;2023-09-07T17:31:44;27.50;95.80
2855;DHT22;1435;49.472;10.940;2023-09-07T17:36:46;27.30;96.50
2855;DHT22;1435;49.472;10.940;2023-09-07T17:41:48;27.10;96.90
2855;DHT22;1435;49.472;10.940;2023-09-07T17:46:51;26.90;97.60
2855;DHT22;1435;49.472;10.940;2023-09-07T17:51:52;26.60;98.50
2855;DHT22;1435;49.472;10.940;2023-09-07T17:56:54;26.30;99.30
2855;DHT22;1435;49.472;10.940;2023-09-07T18:01:57;26.10;99.80
2855;DHT22;1435;49.472;10.940;2023-09-07T18:06:59;25.80;99.90
2855;DHT22;1435;49.472;10.940;2023-09-07T18:12:00;25.50;99.90
2855;DHT22;1435;49.472;10.940;2023-09-07T18:17:04;25.30;99.90
2855;DHT22;1435;49.472;10.940;2023-09-07T18:22:06;25.10;99.90
2855;DHT22;1435;49.472;10.940;2023-09-07T18:27:07;24.90;99.90
2855;DHT22;1435;49.472;10.940;2023-09-07T18:32:10;24.70;99.90
2855;DHT22;1435;49.472;10.940;2023-09-07T18:37:12;24.50;99.90
2855;DHT22;1435;49.472;10.940;2023-09-07T18:42:14;24.40;99.90
2855;DHT22;1435;49.472;10.940;2023-09-07T18:47:18;24.20;99.90
2855;DHT22;1435;49.472;10.940;2023-09-07T18:52:20;24.00;99.90
2855;DHT22;1435;49.472;10.940;2023-09-07T18:57:22;23.80;99.90
2855;DHT22;1435;49.472;10.940;2023-09-07T19:02:26;23.60;99.90
2855;DHT22;1435;49.472;10.940;2023-09-07T19:07:27;23.50;99.90
2855;DHT22;1435;49.472;10.940;2023-09-07T19:12:29;23.40;99.90
2855;DHT22;1435;49.472;10.940;2023-09-07T19:17:32;23.20;99.90
2855;DHT22;1435;49.472;10.940;2023-09-07T19:22:34;23.10;99.90
2855;DHT22;1435;49.472;10.940;2023-09-07T19:27:35;23.00;99.90
2855;DHT22;1435;49.472;10.940;2023-09-07T19:32:39;22.90;99.90
2855;DHT22;1435;49.472;10.940;2023-09-07T19:37:41;22.70;99.90
2855;DHT22;1435;49.472;10.940;2023-09-07T19:42:43;22.60;99.90
2855;DHT22;1435;49.472;10.940;2023-09-07T19:47:46;22.50;99.90
2855;DHT22;1435;49.472;10.940;2023-09-07T19:52:47;22.40;99.90
2855;DHT22;1435;49.472;10.940;2023-09-07T19:57:49;22.20;99.90
2855;DHT22;1435;49.472;10.940;2023-09-07T20:02:52;22.20;99.90
2855;DHT22;1435;49.472;10.940;2023-09-07T20:07:57;22.00;99.90
2855;DHT22;1435;49.472;10.940;2023-09-07T20:12:58;22.00;99.90
2855;DHT22;1435;49.472;10.940;2023-09-07T20:18:02;21.90;99.90
2855;DHT22;1435;49.472;10.940;2023-09-07T20:23:04;21.80;99.90
2855;DHT22;1435;49.472;10.940;2023-09-07T20:28:07;21.80;99.90
2855;DHT22;1435;49.472;10.940;2023-09-07T20:33:10;21.70;99.90
2855;DHT22;1435;49.472;10.940;2023-09-07T20:38:12;21.60;99.90
2855;DHT22;1435;49.472;10.940;2023-09-07T20:43:14;21.50;99.90
2855;DHT22;1435;49.472;10.940;2023-09-07T20:48:24;21.40;99.90
2855;DHT22;1435;49.472;10.940;2023-09-07T20:53:26;21.30;99.90
2855;DHT22;1435;49.472;10.940;2023-09-07T20:58:28;21.20;99.90
2855;DHT22;1435;49.472;10.940;2023-09-07T21:03:31;21.10;99.90
2855;DHT22;1435;49.472;10.940;2023-09-07T21:08:32;21.10;99.90
2855;DHT22;1435;49.472;10.940;2023-09-07T21:13:34;21.00;99.90
2855;DHT22;1435;49.472;10.940;2023-09-07T21:18:37;20.90;99.90
2855;DHT22;1435;49.472;10.940;2023-09-07T21:23:39;20.80;99.90
2855;DHT22;1435;49.472;10.940;2023-09-07T21:28:41;20.70;99.90
2855;DHT22;1435;49.472;10.940;2023-09-07T21:33:44;20.60;99.90
2855;DHT22;1435;49.472;10.940;2023-09-07T21:38:46;20.50;99.90
2855;DHT22;1435;49.472;10.940;2023-09-07T21:43:48;20.50;99.90
2855;DHT22;1435;49.472;10.940;2023-09-07T21:48:51;20.40;99.90
2855;DHT22;1435;49.472;10.940;2023-09-07T21:53:53;20.30;99.90
2855;DHT22;1435;49.472;10.940;2023-09-07T21:58:55;20.20;99.90
2855;DHT22;1435;49.472;10.940;2023-09-07T22:03:58;20.20;99.90
2855;DHT22;1435;49.472;10.940;2023-09-07T22:09:01;20.10;99.90
2855;DHT22;1435;49.472;10.940;2023-09-07T22:14:04;20.00;99.90
2855;DHT22;1435;49.472;10.940;2023-09-07T22:19:07;19.90;99.90
2855;DHT22;1435;49.472;10.940;2023-09-07T22:24:09;19.90;99.90
2855;DHT22;1435;49.472;10.940;2023-09-07T22:29:11;19.90;99.90
2855;DHT22;1435;49.472;10.940;2023-09-07T22:34:14;19.80;99.90
2855;DHT22;1435;49.472;10.940;2023-09-07T22:39:16;19.70;99.90
2855;DHT22;1435;49.472;10.940;2023-09-07T22:44:18;19.60;99.90
2855;DHT22;1435;49.472;10.940;2023-09-07T22:49:21;19.60;99.90
2855;DHT22;1435;49.472;10.940;2023-09-07T22:54:22;19.50;99.90
2855;DHT22;1435;49.472;10.940;2023-09-07T22:59:24;19.40;99.90
2855;DHT22;1435;49.472;10.940;2023-09-07T23:04:27;19.30;99.90
2855;DHT22;1435;49.472;10.940;2023-09-07T23:09:29;19.20;99.90
2855;DHT22;1435;49.472;10.940;2023-09-07T23:14:32;19.10;99.90
2855;DHT22;1435;49.472;10.940;2023-09-07T23:19:35;19.00;99.90
2855;DHT22;1435;49.472;10.940;2023-09-07T23:24:37;18.90;99.90
2855;DHT22;1435;49.472;10.940;2023-09-07T23:29:39;18.90;99.90
2855;DHT22;1435;49.472;10.940;2023-09-07T23:34:42;18.80;99.90
2855;DHT22;1435;49.472;10.940;2023-09-07T23:39:44;18.80;99.90
2855;DHT22;1435;49.472;10.940;2023-09-07T23:44:45;18.70;99.90
2855;DHT22;1435;49.472;10.940;2023-09-07T23:49:49;18.60;99.90
2855;DHT22;1435;49.472;10.940;2023-09-07T23:54:51;18.60;99.90
2855;DHT22;1435;49.472;10.940;2023-09-07T23:59:53;18.60;99.90
